Time;durP1;ratioP1;P1;durP2;ratioP2;P2;SDS_P1;SDS_P2;PMS_P1;PMS_P2;Temp;Humidity;BMP_temperature;BMP_pressure;BME280_temperature;BME280_humidity;BME280_pressure;Samples;Min_cycle;Max_cycle;Signal;HPM_P1;HPM_P2
2023/09/20 00:01:56;;;;;;;9.10;4.18;;;16.60;99.90;;;;;;5080279;28;20045;-84
2023/09/20 00:04:22;;;;;;;11.23;4.10;;;16.60;99.90;;;;;;5078138;28;20110;-84
2023/09/20 00:06:48;;;;;;;13.32;4.80;;;16.60;99.90;;;;;;5090480;28;20052;-82
2023/09/20 00:09:15;;;;;;;9.68;4.40;;;16.60;99.90;;;;;;5068394;28;20040;-82
2023/09/20 00:11:44;;;;;;;12.07;4.00;;;16.60;99.90;;;;;;5073792;28;20040;-82
2023/09/20 00:14:10;;;;;;;10.90;4.63;;;16.50;99.90;;;;;;5075819;28;20112;-82
2023/09/20 00:16:36;;;;;;;14.07;4.50;;;16.60;99.90;;;;;;5075602;28;20427;-85
2023/09/20 00:19:03;;;;;;;18.13;4.15;;;16.60;99.90;;;;;;5072537;28;20044;-82
2023/09/20 00:21:29;;;;;;;13.98;4.78;;;16.60;99.90;;;;;;5080367;28;20051;-85
2023/09/20 00:23:55;;;;;;;14.73;4.65;;;16.60;99.90;;;;;;5089417;28;20058;-84
2023/09/20 00:26:21;;;;;;;16.27;4.78;;;16.60;99.90;;;;;;5071323;28;20057;-83
2023/09/20 00:28:48;;;;;;;13.93;5.50;;;16.60;99.90;;;;;;5078150;28;20056;-83
2023/09/20 00:31:17;;;;;;;11.25;4.65;;;16.50;99.90;;;;;;5077658;28;20057;-82
2023/09/20 00:33:44;;;;;;;10.88;4.63;;;16.60;99.90;;;;;;5095395;28;20037;-83
2023/09/20 00:36:19;;;;;;;14.82;4.95;;;16.50;99.90;;;;;;5088067;28;20058;-84
2023/09/20 00:38:45;;;;;;;11.10;4.47;;;16.60;99.90;;;;;;5089824;28;20079;-85
2023/09/20 00:41:15;;;;;;;13.73;4.70;;;16.60;99.90;;;;;;5091508;28;20032;-86
2023/09/20 00:43:41;;;;;;;11.70;4.53;;;16.60;99.90;;;;;;5074801;28;20045;-84
2023/09/20 00:46:09;;;;;;;16.95;4.78;;;16.60;99.90;;;;;;5076746;28;20036;-85
2023/09/20 00:48:38;;;;;;;16.35;4.97;;;16.60;99.90;;;;;;5077309;28;20056;-82
2023/09/20 00:51:07;;;;;;;12.40;5.00;;;16.60;99.90;;;;;;5069192;28;20051;-84
2023/09/20 00:53:35;;;;;;;13.70;4.82;;;16.60;99.90;;;;;;5107106;28;20056;-82
2023/09/20 00:56:03;;;;;;;;;;;16.60;99.90;;;;;;5073768;28;20081;-83
2023/09/20 00:58:29;;;;;;;13.90;4.57;;;16.60;99.90;;;;;;5089153;28;19947;-84
2023/09/20 01:01:00;;;;;;;11.63;4.70;;;16.60;99.90;;;;;;5089032;28;20036;-86
2023/09/20 01:03:27;;;;;;;14.00;4.68;;;16.60;99.90;;;;;;5076517;28;20095;-84
2023/09/20 01:05:54;;;;;;;13.50;4.90;;;16.60;99.90;;;;;;5084407;28;20044;-84
2023/09/20 01:08:20;;;;;;;20.52;6.00;;;17.30;99.90;;;;;;5056634;28;20047;-83
2023/09/20 01:10:47;;;;;;;13.23;4.80;;;16.50;99.90;;;;;;5078160;28;20076;-85
2023/09/20 01:13:15;;;;;;;19.73;5.30;;;16.60;99.90;;;;;;5083991;28;20045;-84
2023/09/20 01:15:43;;;;;;;11.80;4.80;;;16.60;99.90;;;;;;5083888;28;20105;-85
2023/09/20 01:18:09;;;;;;;13.35;4.95;;;16.50;99.90;;;;;;5083716;28;20067;-83
2023/09/20 01:20:37;;;;;;;14.95;5.40;;;16.50;99.90;;;;;;5098323;28;20044;-84
2023/09/20 01:23:03;;;;;;;;;;;16.60;99.90;;;;;;5091988;28;20049;-82
2023/09/20 01:25:41;;;;;;;13.93;4.88;;;16.50;99.90;;;;;;5057482;28;20013;-81
2023/09/20 01:28:08;;;;;;;11.57;4.70;;;16.60;99.90;;;;;;5085570;28;20059;-83
2023/09/20 01:30:36;;;;;;;20.77;5.43;;;16.70;99.90;;;;;;5091179;28;20034;-84
2023/09/20 01:33:09;;;;;;;14.23;4.63;;;16.60;99.90;;;;;;5104495;28;20040;-81
2023/09/20 01:35:39;;;;;;;13.73;4.95;;;16.70;99.90;;;;;;5079976;28;20025;-82
2023/09/20 01:38:06;;;;;;;18.25;5.00;;;16.80;99.90;;;;;;5095978;28;20024;-80
2023/09/20 01:40:36;;;;;;;18.25;5.30;;;16.60;99.90;;;;;;5086573;28;20063;-81
2023/09/20 01:43:06;;;;;;;11.15;4.57;;;16.60;99.90;;;;;;5097765;28;20123;-82
2023/09/20 01:45:34;;;;;;;13.80;4.63;;;16.60;99.90;;;;;;5077485;28;20130;-82
2023/09/20 01:48:00;;;;;;;15.88;4.82;;;16.60;99.90;;;;;;5090418;28;20045;-84
2023/09/20 01:50:27;;;;;;;18.27;4.63;;;16.60;99.90;;;;;;5093050;28;20037;-83
2023/09/20 01:52:54;;;;;;;13.43;4.75;;;16.60;99.90;;;;;;5084077;28;20101;-83
2023/09/20 01:55:24;;;;;;;11.68;4.65;;;16.60;99.90;;;;;;5068008;28;20040;-84
2023/09/20 01:57:52;;;;;;;13.60;4.10;;;16.60;99.90;;;;;;5073630;28;20060;-84
2023/09/20 02:00:23;;;;;;;14.48;4.28;;;16.60;99.90;;;;;;5097201;28;20041;-83
2023/09/20 02:02:57;;;;;;;11.43;3.95;;;16.60;99.90;;;;;;5083932;28;20388;-84
2023/09/20 02:05:24;;;;;;;14.35;4.93;;;16.60;99.90;;;;;;5105364;28;20036;-84
2023/09/20 02:07:52;;;;;;;19.73;4.13;;;16.60;99.90;;;;;;5070687;28;20047;-84
2023/09/20 02:10:19;;;;;;;16.23;4.78;;;16.60;99.90;;;;;;5078309;28;20032;-82
2023/09/20 02:12:46;;;;;;;14.80;4.30;;;16.60;99.90;;;;;;5090705;28;20040;-82
2023/09/20 02:15:15;;;;;;;22.33;5.13;;;16.70;99.90;;;;;;5113195;27;20041;-85
2023/09/20 02:17:41;;;;;;;13.65;4.13;;;16.70;99.90;;;;;;5084213;28;20033;-82
2023/09/20 02:20:09;;;;;;;13.77;4.32;;;16.70;99.90;;;;;;5083829;28;20044;-81
2023/09/20 02:22:36;;;;;;;20.95;4.97;;;16.70;99.90;;;;;;5084244;28;20052;-83
2023/09/20 02:25:12;;;;;;;13.13;4.05;;;16.60;99.90;;;;;;5083209;28;20522;-83
2023/09/20 02:27:44;;;;;;;13.60;4.45;;;16.70;99.90;;;;;;5057371;28;20036;-83
2023/09/20 02:30:15;;;;;;;13.98;4.30;;;16.60;99.90;;;;;;5074985;28;20397;-84
2023/09/20 02:32:41;;;;;;;13.65;4.50;;;16.60;99.90;;;;;;5079170;28;20071;-85
2023/09/20 02:35:07;;;;;;;18.50;4.55;;;16.70;99.90;;;;;;5076828;28;20060;-83
2023/09/20 02:37:37;;;;;;;14.65;4.25;;;16.70;99.90;;;;;;5076133;28;20087;-81
2023/09/20 02:40:18;;;;;;;12.10;3.67;;;16.70;99.90;;;;;;5069921;28;20047;-87
2023/09/20 02:42:52;;;;;;;13.45;4.60;;;16.70;99.90;;;;;;5060491;28;20053;-85
2023/09/20 02:45:19;;;;;;;14.02;4.15;;;16.70;99.90;;;;;;5080051;28;20049;-83
2023/09/20 02:47:46;;;;;;;16.67;4.40;;;16.70;99.90;;;;;;5083506;28;20043;-83
2023/09/20 02:50:13;;;;;;;13.25;4.47;;;16.70;99.90;;;;;;5066716;28;20040;-85
2023/09/20 02:52:41;;;;;;;13.05;3.83;;;16.70;99.90;;;;;;5070795;28;20097;-83
2023/09/20 02:55:08;;;;;;;12.73;4.38;;;16.80;99.90;;;;;;5074084;28;20175;-83
2023/09/20 02:57:37;;;;;;;16.47;4.30;;;16.40;99.90;;;;;;5083879;28;20495;-85
2023/09/20 03:00:16;;;;;;;14.38;4.30;;;16.80;99.90;;;;;;5070620;28;20048;-82
2023/09/20 03:02:44;;;;;;;18.10;3.90;;;16.80;99.90;;;;;;5086382;28;20048;-84
2023/09/20 03:05:11;;;;;;;15.63;4.88;;;16.80;99.90;;;;;;5083587;28;20040;-81
2023/09/20 03:07:37;;;;;;;9.25;3.53;;;16.80;99.90;;;;;;5069343;28;20037;-81
2023/09/20 03:10:05;;;;;;;12.40;3.83;;;16.80;99.90;;;;;;5099623;28;20041;-83
2023/09/20 03:12:34;;;;;;;13.18;4.20;;;16.80;99.90;;;;;;5058742;28;20045;-85
2023/09/20 03:15:04;;;;;;;11.02;4.03;;;16.80;99.90;;;;;;5082865;28;20047;-83
2023/09/20 03:17:31;;;;;;;8.93;3.20;;;16.80;99.90;;;;;;5083768;28;20048;-81
2023/09/20 03:19:57;;;;;;;14.15;4.05;;;16.80;99.90;;;;;;5107407;28;20049;-83
2023/09/20 03:22:22;;;;;;;16.13;3.55;;;16.80;99.90;;;;;;5077931;28;20052;-83
2023/09/20 03:24:48;;;;;;;14.63;4.10;;;16.80;99.90;;;;;;5061789;28;20402;-80
2023/09/20 03:27:16;;;;;;;10.68;3.90;;;16.80;99.90;;;;;;5086780;28;20053;-82
2023/09/20 03:29:46;;;;;;;13.82;4.15;;;16.80;99.90;;;;;;5083647;28;20043;-83
2023/09/20 03:32:15;;;;;;;10.68;4.03;;;16.70;99.90;;;;;;5076421;28;20129;-81
2023/09/20 03:34:41;;;;;;;14.35;3.42;;;16.90;99.90;;;;;;5084034;28;20088;-83
2023/09/20 03:37:09;;;;;;;12.07;3.90;;;16.90;99.90;;;;;;5071391;28;20044;-83
2023/09/20 03:39:40;;;;;;;;;;;16.80;99.90;;;;;;5082757;28;20124;-85
2023/09/20 03:42:11;;;;;;;11.35;4.15;;;16.90;99.90;;;;;;5090816;28;19931;-85
2023/09/20 03:44:42;;;;;;;10.48;3.85;;;16.90;99.90;;;;;;5069141;28;20048;-81
2023/09/20 03:47:07;;;;;;;10.25;3.33;;;16.90;99.90;;;;;;5086985;28;20102;-83
2023/09/20 03:49:33;;;;;;;10.13;3.80;;;16.90;99.90;;;;;;5074851;28;20029;-81
2023/09/20 03:52:00;;;;;;;11.65;3.50;;;16.90;99.90;;;;;;5089087;28;20052;-82
2023/09/20 03:54:29;;;;;;;10.18;3.90;;;16.90;99.90;;;;;;5080849;28;20083;-82
2023/09/20 03:56:55;;;;;;;11.93;3.95;;;16.90;99.90;;;;;;5062159;28;20459;-85
2023/09/20 03:59:21;;;;;;;9.93;3.63;;;16.90;99.90;;;;;;5063779;28;20048;-83
2023/09/20 04:01:46;;;;;;;11.57;3.85;;;16.90;99.90;;;;;;5074949;28;20037;-81
2023/09/20 04:04:16;;;;;;;17.52;4.18;;;16.90;99.90;;;;;;5092675;28;20071;-81
2023/09/20 04:06:43;;;;;;;10.68;4.13;;;16.90;99.90;;;;;;5086607;28;20032;-82
2023/09/20 04:09:11;;;;;;;13.00;3.50;;;16.90;99.90;;;;;;5059767;28;20041;-81
2023/09/20 04:11:40;;;;;;;16.58;4.30;;;16.90;99.90;;;;;;5075458;28;20059;-84
2023/09/20 04:14:08;;;;;;;13.55;4.10;;;16.90;99.90;;;;;;5089720;28;20040;-85
2023/09/20 04:16:39;;;;;;;13.93;4.03;;;16.90;99.90;;;;;;5092668;28;20045;-83
2023/09/20 04:19:06;;;;;;;17.35;4.65;;;16.90;99.90;;;;;;5091437;28;20053;-84
2023/09/20 04:21:32;;;;;;;14.00;4.53;;;16.80;99.90;;;;;;5066068;28;20078;-83
2023/09/20 04:23:59;;;;;;;11.65;3.85;;;16.80;99.90;;;;;;5097940;28;20078;-83
2023/09/20 04:26:25;;;;;;;12.10;4.03;;;16.90;99.90;;;;;;5079988;28;20047;-81
2023/09/20 04:28:51;;;;;;;13.90;4.00;;;16.90;99.90;;;;;;5086079;28;20090;-85
2023/09/20 04:31:17;;;;;;;15.48;4.90;;;16.80;99.90;;;;;;5072638;28;20048;-82
2023/09/20 04:33:43;;;;;;;17.63;4.75;;;16.80;99.90;;;;;;5083385;28;20098;-83
2023/09/20 04:36:08;;;;;;;12.45;4.20;;;16.80;99.90;;;;;;5083145;28;20063;-83
2023/09/20 04:38:34;;;;;;;12.05;3.42;;;16.80;99.90;;;;;;5081217;28;20044;-84
2023/09/20 04:41:00;;;;;;;10.30;3.78;;;16.80;99.90;;;;;;5066978;28;20063;-84
2023/09/20 04:43:26;;;;;;;9.05;4.18;;;16.80;99.90;;;;;;5071935;28;20029;-80
2023/09/20 04:45:52;;;;;;;13.88;3.50;;;16.70;99.90;;;;;;5073695;28;20042;-84
2023/09/20 04:48:21;;;;;;;11.20;3.90;;;16.70;99.90;;;;;;5072280;28;20104;-82
2023/09/20 04:50:51;;;;;;;17.17;4.47;;;16.70;99.90;;;;;;5084379;28;20040;-81
2023/09/20 04:53:16;;;;;;;13.98;3.83;;;16.60;99.90;;;;;;5075525;28;20487;-82
2023/09/20 04:55:42;;;;;;;11.45;4.30;;;16.50;99.90;;;;;;5085638;28;20123;-84
2023/09/20 04:58:08;;;;;;;14.63;3.92;;;16.50;99.90;;;;;;5105510;27;20048;-83
2023/09/20 05:00:37;;;;;;;17.80;4.65;;;16.50;99.90;;;;;;5073570;28;20044;-83
2023/09/20 05:03:03;;;;;;;13.65;4.35;;;16.40;99.90;;;;;;5074941;28;20041;-81
2023/09/20 05:05:29;;;;;;;13.93;4.05;;;16.40;99.90;;;;;;5074162;28;20064;-82
2023/09/20 05:07:56;;;;;;;9.25;4.25;;;16.40;99.90;;;;;;5078016;28;20044;-84
2023/09/20 05:10:22;;;;;;;15.10;4.50;;;16.30;99.90;;;;;;5064969;28;20056;-83
2023/09/20 05:12:51;;;;;;;12.50;4.43;;;16.30;99.90;;;;;;5062404;28;20041;-82
2023/09/20 05:15:17;;;;;;;14.23;4.15;;;16.20;99.90;;;;;;5081080;28;20552;-83
2023/09/20 05:17:43;;;;;;;8.73;3.78;;;16.20;99.90;;;;;;5080580;28;20037;-84
2023/09/20 05:20:16;;;;;;;16.10;4.53;;;16.20;99.90;;;;;;5081198;28;20063;-82
2023/09/20 05:22:42;;;;;;;14.95;4.45;;;16.10;99.90;;;;;;5088178;28;20105;-81
2023/09/20 05:25:11;;;;;;;12.65;3.80;;;16.10;99.90;;;;;;5081100;28;20041;-83
2023/09/20 05:27:37;;;;;;;18.55;3.72;;;16.10;99.90;;;;;;5085960;28;20041;-83
2023/09/20 05:33:07;;;;;;;12.65;4.03;;;16.10;99.90;;;;;;5228203;22;20137;-84
2023/09/20 05:35:32;;;;;;;15.40;3.80;;;16.10;99.90;;;;;;5059184;28;20045;-81
2023/09/20 05:37:59;;;;;;;12.63;3.92;;;16.10;99.90;;;;;;5072685;28;20025;-85
2023/09/20 05:40:28;;;;;;;13.27;4.22;;;16.10;99.90;;;;;;5055853;28;20037;-85
2023/09/20 05:42:54;;;;;;;7.00;3.30;;;16.10;99.90;;;;;;5073434;28;20067;-87
2023/09/20 05:45:20;;;;;;;14.13;3.50;;;16.20;99.90;;;;;;5075488;28;20025;-85
2023/09/20 05:47:52;;;;;;;11.70;3.92;;;16.20;99.90;;;;;;5075493;28;20051;-84
2023/09/20 05:50:33;;;;;;;11.40;3.65;;;16.20;99.90;;;;;;5073759;28;20034;-84
2023/09/20 05:52:59;;;;;;;17.48;3.97;;;16.20;99.90;;;;;;5070573;28;20021;-85
2023/09/20 05:55:26;;;;;;;11.60;4.00;;;16.20;99.90;;;;;;5066350;28;20041;-85
2023/09/20 05:57:54;;;;;;;14.20;4.03;;;16.10;99.90;;;;;;5070320;28;20037;-84
2023/09/20 06:00:22;;;;;;;10.23;3.95;;;16.00;99.90;;;;;;5072414;28;20063;-82
2023/09/20 06:02:51;;;;;;;10.10;3.22;;;16.30;99.90;;;;;;5066390;28;20053;-84
2023/09/20 06:05:19;;;;;;;9.27;3.35;;;16.10;99.90;;;;;;5067187;28;20534;-82
2023/09/20 06:07:45;;;;;;;11.70;3.90;;;16.20;99.90;;;;;;5047630;28;20055;-85
2023/09/20 06:10:18;;;;;;;10.93;4.22;;;16.50;99.90;;;;;;5044506;28;20371;-84
2023/09/20 06:12:45;;;;;;;13.15;3.97;;;16.20;99.90;;;;;;5058123;28;20041;-83
2023/09/20 06:15:20;;;;;;;9.68;3.80;;;16.20;99.90;;;;;;5043868;28;20041;-84
2023/09/20 06:17:49;;;;;;;13.43;3.63;;;16.30;99.90;;;;;;5060397;28;20094;-86
2023/09/20 06:20:24;;;;;;;15.38;4.15;;;16.30;99.90;;;;;;5030565;28;20048;-85
2023/09/20 06:22:51;;;;;;;13.38;3.13;;;16.30;99.90;;;;;;5056682;28;20115;-83
2023/09/20 06:25:21;;;;;;;10.43;3.95;;;16.40;99.90;;;;;;5059773;28;20092;-83
2023/09/20 06:27:53;;;;;;;13.32;3.75;;;16.40;99.90;;;;;;5044924;28;20116;-87
2023/09/20 06:30:24;;;;;;;10.00;3.38;;;15.60;99.90;;;;;;5036142;28;20037;-81
2023/09/20 06:32:50;;;;;;;11.60;4.13;;;16.40;99.90;;;;;;5039810;28;20044;-83
2023/09/20 06:35:21;;;;;;;12.02;4.85;;;16.40;99.90;;;;;;5040202;28;20068;-83
2023/09/20 06:37:47;;;;;;;11.55;4.20;;;16.40;99.90;;;;;;5039165;28;20044;-81
2023/09/20 06:40:23;;;;;;;11.32;3.78;;;16.50;99.90;;;;;;5052549;28;20518;-82
2023/09/20 06:42:52;;;;;;;9.20;3.20;;;16.40;99.90;;;;;;5059869;28;20044;-82
2023/09/20 06:45:19;;;;;;;10.90;3.70;;;15.90;99.90;;;;;;5049518;28;20384;-81
2023/09/20 06:47:45;;;;;;;12.20;3.42;;;16.30;99.90;;;;;;5057614;28;20132;-82
2023/09/20 06:50:14;;;;;;;11.20;3.65;;;16.50;99.90;;;;;;5051532;28;20368;-84
2023/09/20 06:52:42;;;;;;;14.23;3.65;;;16.50;99.90;;;;;;5049934;28;20060;-80
2023/09/20 06:55:11;;;;;;;6.82;3.10;;;16.40;99.90;;;;;;5060428;28;20099;-83
2023/09/20 06:57:38;;;;;;;9.75;3.00;;;16.40;99.90;;;;;;5062388;28;20044;-83
2023/09/20 07:00:05;;;;;;;13.13;3.03;;;16.50;99.90;;;;;;5044111;28;20041;-88
2023/09/20 07:02:31;;;;;;;14.32;4.35;;;16.50;99.90;;;;;;5045179;28;20100;-85
2023/09/20 07:04:57;;;;;;;9.30;3.20;;;16.50;99.90;;;;;;5067647;28;20060;-84
2023/09/20 07:07:25;;;;;;;8.48;3.55;;;16.50;99.90;;;;;;5052634;28;20045;-82
2023/09/20 07:09:50;;;;;;;8.30;3.40;;;16.50;99.90;;;;;;5056826;28;20056;-81
2023/09/20 07:12:16;;;;;;;8.25;3.33;;;16.50;99.90;;;;;;5053890;28;20467;-82
2023/09/20 07:14:42;;;;;;;7.82;2.88;;;16.50;99.90;;;;;;5030351;28;20041;-80
2023/09/20 07:17:08;;;;;;;9.15;3.10;;;16.60;99.90;;;;;;5045825;28;20040;-81
2023/09/20 07:19:36;;;;;;;13.05;3.30;;;16.60;99.90;;;;;;5040583;28;20033;-83
2023/09/20 07:22:03;;;;;;;10.25;3.25;;;16.70;99.90;;;;;;5057471;28;20073;-80
2023/09/20 07:24:32;;;;;;;;;;;16.70;99.90;;;;;;5023307;28;20044;-82
2023/09/20 07:26:58;;;;;;;12.13;4.28;;;16.70;99.90;;;;;;5054551;28;19921;-83
2023/09/20 07:29:25;;;;;;;10.50;3.53;;;16.80;99.90;;;;;;5043569;28;20043;-81
2023/09/20 07:31:54;;;;;;;10.37;3.27;;;16.80;99.90;;;;;;5061333;28;20052;-82
2023/09/20 07:34:23;;;;;;;12.00;3.75;;;16.90;99.90;;;;;;5050986;28;20072;-82
2023/09/20 07:36:53;;;;;;;10.57;3.50;;;17.10;99.90;;;;;;5047922;28;20105;-80
2023/09/20 07:39:21;;;;;;;10.43;3.35;;;17.20;99.90;;;;;;5060186;28;20041;-80
2023/09/20 07:41:51;;;;;;;7.90;2.97;;;17.40;99.90;;;;;;5068471;28;20052;-82
2023/09/20 07:44:17;;;;;;;10.43;3.60;;;17.70;99.90;;;;;;5064023;28;20087;-82
2023/09/20 07:46:43;;;;;;;12.82;3.58;;;17.80;99.90;;;;;;5055789;28;20044;-79
2023/09/20 07:49:10;;;;;;;11.18;3.42;;;17.80;99.90;;;;;;5053811;28;20040;-82
2023/09/20 07:51:39;;;;;;;8.32;3.05;;;17.80;99.90;;;;;;5058956;28;20048;-82
2023/09/20 07:54:10;;;;;;;6.97;3.25;;;17.80;99.90;;;;;;5054499;28;20084;-80
2023/09/20 07:56:43;;;;;;;12.50;3.75;;;17.80;99.90;;;;;;5055993;28;20041;-83
2023/09/20 07:59:09;;;;;;;9.07;3.15;;;17.70;99.90;;;;;;5061219;28;20048;-82
2023/09/20 08:01:41;;;;;;;13.02;3.72;;;17.80;99.90;;;;;;5065011;28;20045;-80
2023/09/20 08:04:10;;;;;;;11.02;3.40;;;17.90;99.90;;;;;;5065218;28;20443;-82
2023/09/20 08:06:39;;;;;;;9.02;3.33;;;18.10;99.90;;;;;;5051878;28;20063;-82
2023/09/20 08:09:05;;;;;;;7.32;3.20;;;18.20;99.90;;;;;;5052928;28;20037;-82
2023/09/20 08:12:00;;;;;;;11.60;3.17;;;18.30;99.90;;;;;;5065849;28;20046;-84
2023/09/20 08:14:30;;;;;;;8.48;3.30;;;18.40;99.90;;;;;;5062350;28;20175;-83
2023/09/20 08:19:43;;;;;;;12.77;4.13;;;18.60;99.90;;;;;;5070338;28;20100;-82
2023/09/20 08:22:10;;;;;;;8.95;3.28;;;18.70;99.90;;;;;;5058408;28;20049;-82
2023/09/20 09:00:34;;;;;;;8.40;2.83;;;18.50;99.90;;;;;;5052596;28;20063;-82
2023/09/20 09:03:04;;;;;;;11.57;3.83;;;18.40;99.90;;;;;;5057088;28;20045;-82
2023/09/20 09:05:31;;;;;;;10.15;3.35;;;18.40;99.90;;;;;;5034717;28;20053;-82
2023/09/20 09:07:59;;;;;;;10.52;3.38;;;18.40;99.90;;;;;;5040351;28;20053;-83
2023/09/20 09:10:26;;;;;;;9.60;3.58;;;18.30;99.90;;;;;;5040880;28;20097;-84
2023/09/20 09:12:51;;;;;;;9.15;3.55;;;18.30;99.90;;;;;;5047454;28;20037;-82
2023/09/20 09:15:17;;;;;;;12.48;4.07;;;18.30;99.90;;;;;;5044572;28;20070;-83
2023/09/20 09:17:47;;;;;;;9.88;3.40;;;18.20;99.90;;;;;;5070246;28;20080;-82
2023/09/20 09:20:16;;;;;;;9.15;3.58;;;18.30;99.90;;;;;;5046460;28;20063;-82
2023/09/20 09:22:46;;;;;;;9.80;3.65;;;18.20;99.90;;;;;;5051382;28;20036;-83
2023/09/20 09:25:19;;;;;;;8.45;3.83;;;18.20;99.90;;;;;;5063598;28;20179;-83
2023/09/20 09:27:45;;;;;;;8.73;3.63;;;18.20;99.90;;;;;;5059845;28;20053;-80
2023/09/20 09:30:17;;;;;;;7.43;3.38;;;18.20;99.90;;;;;;5042937;28;20128;-81
2023/09/20 09:32:47;;;;;;;9.30;3.42;;;18.20;99.90;;;;;;5051486;28;20102;-81
2023/09/20 09:35:15;;;;;;;9.25;3.67;;;18.20;99.90;;;;;;5062441;28;20076;-83
2023/09/20 09:37:43;;;;;;;10.27;3.50;;;18.20;99.90;;;;;;5060413;28;20044;-83
2023/09/20 09:40:09;;;;;;;;;;;18.20;99.90;;;;;;5062608;28;20430;-82
2023/09/20 09:42:36;;;;;;;7.63;3.50;;;18.20;99.90;;;;;;5065680;28;19920;-81
2023/09/20 09:45:06;;;;;;;10.68;4.05;;;18.20;99.90;;;;;;5065769;28;20044;-82
2023/09/20 09:47:36;;;;;;;10.98;3.92;;;18.20;99.90;;;;;;5049234;28;20044;-83
2023/09/20 09:50:08;;;;;;;9.70;3.65;;;18.30;99.90;;;;;;5064237;28;20049;-82
2023/09/20 09:52:38;;;;;;;9.07;3.47;;;18.30;99.90;;;;;;5054300;28;20475;-81
2023/09/20 09:55:07;;;;;;;8.70;3.70;;;18.30;99.90;;;;;;5044589;28;20037;-82
2023/09/20 09:57:33;;;;;;;9.25;4.00;;;18.30;99.90;;;;;;5043028;28;20069;-81
2023/09/20 10:00:00;;;;;;;7.25;3.90;;;18.40;99.90;;;;;;5043414;28;20037;-83
2023/09/20 10:02:36;;;;;;;8.68;4.20;;;18.30;99.90;;;;;;5057078;28;20084;-84
2023/09/20 10:05:10;;;;;;;6.97;3.58;;;18.40;99.90;;;;;;5065909;28;20048;-82
2023/09/20 10:07:40;;;;;;;8.50;4.38;;;18.40;99.90;;;;;;5068442;28;20077;-82
2023/09/20 10:10:13;;;;;;;7.50;3.75;;;18.70;99.90;;;;;;5052634;28;20083;-82
2023/09/20 10:12:44;;;;;;;7.95;3.85;;;18.40;99.90;;;;;;5051738;28;20076;-83
2023/09/20 10:15:14;;;;;;;6.50;3.60;;;18.50;99.90;;;;;;5060584;28;20033;-85
2023/09/20 10:17:52;;;;;;;6.00;3.55;;;18.50;99.90;;;;;;5057315;28;20262;-83
2023/09/20 10:20:18;;;;;;;8.88;3.97;;;18.50;99.90;;;;;;5053536;28;20033;-83
2023/09/20 10:22:47;;;;;;;5.40;3.22;;;18.60;99.90;;;;;;5050683;28;20048;-83
2023/09/20 10:25:39;;;;;;;7.20;3.65;;;18.40;99.90;;;;;;5053915;28;20079;-83
2023/09/20 10:28:16;;;;;;;9.68;4.20;;;18.70;99.90;;;;;;5051038;28;20041;-83
2023/09/20 10:31:02;;;;;;;9.70;3.60;;;18.80;99.90;;;;;;5079522;28;20029;-82
2023/09/20 10:33:46;;;;;;;7.10;3.60;;;19.20;99.90;;;;;;5059088;28;20067;-82
2023/09/20 10:36:19;;;;;;;9.82;3.80;;;18.90;99.90;;;;;;5076907;28;20033;-82
2023/09/20 10:38:46;;;;;;;4.57;3.17;;;18.90;99.90;;;;;;5048078;28;20063;-81
2023/09/20 10:41:13;;;;;;;8.80;3.53;;;18.90;99.90;;;;;;5076480;28;20032;-82
2023/09/20 10:43:38;;;;;;;9.63;4.10;;;18.90;99.90;;;;;;5055214;28;20060;-82
2023/09/20 10:46:12;;;;;;;8.48;3.55;;;19.00;99.90;;;;;;5065098;28;20100;-82
2023/09/20 10:48:48;;;;;;;6.75;3.40;;;19.00;99.90;;;;;;5082968;28;20045;-81
2023/09/20 10:51:53;;;;;;;7.78;3.95;;;19.00;99.90;;;;;;5053770;28;20036;-81
2023/09/20 10:54:25;;;;;;;7.43;3.10;;;18.90;99.90;;;;;;5066366;28;20102;-84
2023/09/20 10:56:52;;;;;;;12.85;3.53;;;18.90;99.90;;;;;;5050904;28;20042;-83
2023/09/20 10:59:25;;;;;;;7.22;3.70;;;18.90;99.90;;;;;;5058600;28;20170;-84
2023/09/20 11:01:52;;;;;;;9.02;3.45;;;18.80;99.90;;;;;;5066719;28;20052;-83
2023/09/20 11:04:18;;;;;;;7.38;3.00;;;18.80;99.90;;;;;;5050089;28;20060;-83
2023/09/20 11:06:55;;;;;;;7.57;3.05;;;18.90;99.90;;;;;;5083979;28;20044;-85
2023/09/20 11:09:25;;;;;;;5.93;2.80;;;18.90;99.90;;;;;;5050922;28;20063;-82
2023/09/20 11:11:51;;;;;;;7.07;3.03;;;18.80;99.90;;;;;;5063604;28;20049;-82
2023/09/20 11:14:21;;;;;;;5.22;2.78;;;18.90;99.90;;;;;;5063551;28;20132;-84
2023/09/20 11:16:47;;;;;;;5.03;2.70;;;18.90;99.90;;;;;;5064529;28;20056;-83
2023/09/20 11:19:15;;;;;;;5.22;2.70;;;18.80;99.90;;;;;;5062657;28;20040;-83
2023/09/20 11:21:42;;;;;;;8.68;3.20;;;18.80;99.90;;;;;;5068536;28;20041;-83
2023/09/20 11:24:15;;;;;;;6.70;2.92;;;18.80;99.90;;;;;;5043523;28;20076;-83
2023/09/20 11:26:47;;;;;;;5.97;2.88;;;19.30;99.90;;;;;;5057915;28;20045;-83
2023/09/20 11:29:15;;;;;;;10.52;2.78;;;18.80;99.90;;;;;;5056218;28;20118;-82
2023/09/20 11:31:47;;;;;;;5.70;2.63;;;18.80;99.90;;;;;;5067623;28;20096;-84
2023/09/20 11:34:14;;;;;;;14.05;2.50;;;18.80;99.90;;;;;;5061602;28;20119;-82
2023/09/20 11:36:53;;;;;;;4.78;2.30;;;18.90;99.90;;;;;;5063366;28;20455;-82
2023/09/20 11:39:32;;;;;;;5.57;2.50;;;18.90;99.90;;;;;;5047250;28;20030;-83
2023/09/20 11:42:01;;;;;;;5.45;2.88;;;18.90;99.90;;;;;;5059152;28;20398;-84
2023/09/20 11:44:27;;;;;;;7.40;2.90;;;18.90;99.90;;;;;;5043901;28;20124;-84
2023/09/20 11:46:54;;;;;;;5.28;2.55;;;18.90;99.90;;;;;;5066286;28;20113;-82
2023/09/20 11:49:21;;;;;;;6.77;2.33;;;18.90;99.90;;;;;;5059005;28;20040;-82
2023/09/20 11:51:51;;;;;;;7.85;2.55;;;18.90;99.90;;;;;;5060922;28;20483;-82
2023/09/20 11:54:17;;;;;;;6.65;2.63;;;19.00;99.90;;;;;;5066846;28;20160;-82
2023/09/20 11:56:47;;;;;;;4.72;2.20;;;18.90;99.90;;;;;;5067476;28;20032;-84
2023/09/20 11:59:14;;;;;;;7.55;2.58;;;19.00;99.90;;;;;;5057248;28;20100;-84
2023/09/20 12:01:42;;;;;;;5.70;2.65;;;19.00;99.90;;;;;;5065006;28;20057;-82
2023/09/20 12:04:10;;;;;;;6.40;2.33;;;19.00;99.90;;;;;;5042680;28;20112;-84
2023/09/20 12:06:37;;;;;;;8.07;2.67;;;19.00;99.90;;;;;;5066568;28;20182;-83
2023/09/20 12:09:05;;;;;;;5.68;2.60;;;19.00;99.90;;;;;;5042906;28;20048;-84
2023/09/20 12:11:31;;;;;;;7.70;2.80;;;19.00;99.90;;;;;;5042059;28;20118;-83
2023/09/20 12:13:57;;;;;;;6.95;2.80;;;19.00;99.90;;;;;;5061061;28;20041;-84
2023/09/20 12:16:23;;;;;;;7.55;3.08;;;18.20;99.90;;;;;;5042554;28;20172;-85
2023/09/20 12:18:50;;;;;;;6.50;3.15;;;19.00;99.90;;;;;;5061250;28;20437;-82
2023/09/20 12:21:22;;;;;;;4.97;2.90;;;19.00;99.90;;;;;;5075205;28;20095;-81
2023/09/20 12:23:49;;;;;;;9.52;3.63;;;19.00;99.90;;;;;;5040339;28;20136;-83
2023/09/20 12:26:16;;;;;;;7.78;3.05;;;19.00;99.90;;;;;;5046172;28;20073;-81
2023/09/20 12:28:45;;;;;;;8.63;2.95;;;19.10;99.90;;;;;;5064912;28;20122;-83
2023/09/20 12:31:11;;;;;;;6.30;3.05;;;19.10;99.90;;;;;;5042603;28;20052;-83
2023/09/20 12:33:38;;;;;;;8.10;3.17;;;19.10;99.90;;;;;;5063676;28;20049;-83
2023/09/20 12:36:04;;;;;;;9.27;3.07;;;19.20;99.90;;;;;;5047384;28;20061;-80
2023/09/20 12:38:30;;;;;;;10.02;2.80;;;19.20;99.90;;;;;;5056835;28;20299;-82
2023/09/20 12:40:59;;;;;;;5.95;2.80;;;19.20;99.90;;;;;;5040457;28;20056;-83
2023/09/20 12:43:25;;;;;;;9.57;3.78;;;19.20;99.90;;;;;;5053592;28;20044;-82
2023/09/20 12:45:54;;;;;;;4.28;2.45;;;19.20;99.90;;;;;;5058906;28;20127;-81
2023/09/20 12:48:22;;;;;;;7.55;2.60;;;19.20;99.90;;;;;;5039070;28;20055;-80
2023/09/20 12:50:48;;;;;;;8.00;3.20;;;19.30;99.90;;;;;;5052295;28;20545;-80
2023/09/20 12:53:13;;;;;;;5.63;2.83;;;19.30;99.90;;;;;;5061282;28;20068;-83
2023/09/20 12:55:40;;;;;;;6.18;2.78;;;19.40;99.90;;;;;;5062820;28;20046;-84
2023/09/20 12:58:07;;;;;;;5.40;2.75;;;19.60;99.90;;;;;;5061308;28;20113;-84
2023/09/20 13:00:36;;;;;;;8.27;3.00;;;19.50;99.90;;;;;;5064562;28;20108;-83
2023/09/20 13:03:07;;;;;;;7.07;2.90;;;19.50;99.90;;;;;;5064604;28;20299;-82
2023/09/20 13:05:37;;;;;;;11.27;3.20;;;19.60;99.90;;;;;;5065416;28;20045;-83
2023/09/20 13:08:04;;;;;;;8.52;3.25;;;19.60;99.90;;;;;;5051068;28;20048;-81
2023/09/20 13:10:33;;;;;;;5.15;2.60;;;19.70;99.90;;;;;;5048857;28;20076;-83
2023/09/20 13:13:02;;;;;;;6.82;2.95;;;19.70;99.90;;;;;;5050792;28;20056;-87
2023/09/20 13:15:39;;;;;;;8.25;3.47;;;19.80;99.90;;;;;;5047943;28;20109;-81
2023/09/20 13:18:09;;;;;;;7.10;3.00;;;19.80;99.90;;;;;;5044703;28;20052;-84
2023/09/20 13:20:37;;;;;;;8.65;3.08;;;19.90;99.90;;;;;;5062958;28;20045;-81
2023/09/20 13:23:04;;;;;;;6.90;2.92;;;19.90;99.90;;;;;;5065069;28;20033;-82
2023/09/20 13:25:32;;;;;;;8.00;3.30;;;19.90;99.90;;;;;;5046759;28;20041;-85
2023/09/20 13:27:58;;;;;;;7.10;3.20;;;19.90;99.90;;;;;;5046491;28;20498;-82
2023/09/20 13:30:33;;;;;;;13.30;3.65;;;19.40;99.90;;;;;;5051210;28;20475;-82
2023/09/20 13:33:01;;;;;;;5.78;3.08;;;19.90;99.90;;;;;;5043155;28;20499;-83